Maratha Paramount — V7SE4 — position and weather

sailwx.info

Track history (hours):
 
Tides and Currents Weather Stations Pressure Air Temp Water Temp Dewpoint Dewpoint Depression Visibility Wind Speed Wind Dir Waves Ship Positions

Maratha Paramount

Last reported at 2018-Feb-16 09:14 UTC. Time now 2018-Feb-19 00:11 UTC.
Position N 01°13' E 103°57'.

Length 175 m; draft 6.6 m.

Type: Cargo ship. MMSI: 538003632.

Date/timePositionNaut miles runAvg speedWind from/ knotsBaromVisibWave heightAir tempDewpointWater temp
2018-Feb-16 09:14N 01°13' E 103°57'2 9.0
2018-Feb-16 09:00N 01°14' E 103°55'2 3.4
2018-Feb-16 08:22N 01°16' E 103°54'0 0.0
2018-Feb-16 07:58N 01°16' E 103°54'0 0.0
2018-Feb-16 07:28N 01°16' E 103°54'0 0.0
2018-Feb-16 06:52N 01°16' E 103°54'0 0.0
2018-Feb-16 06:04N 01°16' E 103°54'0 0.0
2018-Feb-16 05:52N 01°16' E 103°54'0 0.2
2018-Feb-16 05:28N 01°16' E 103°54'0 0.0
2018-Feb-16 04:01N 01°16' E 103°54'0 0.1
2018-Feb-16 03:52N 01°16' E 103°54'0 0.1
2018-Feb-16 02:40N 01°16' E 103°54'0 0.0
2018-Feb-16 02:28N 01°16' E 103°54'0 0.0
2018-Feb-16 01:58N 01°16' E 103°54'0 0.0
2018-Feb-15 23:58N 01°16' E 103°54'0 0.0
2018-Feb-15 23:04N 01°16' E 103°54'0 0.0
2018-Feb-15 22:58N 01°16' E 103°54'0 0.0
2018-Feb-15 22:22N 01°16' E 103°54'0 0.0
2018-Feb-15 21:58N 01°16' E 103°54'0 0.0
2018-Feb-15 21:26N 01°16' E 103°54'0 0.0
2018-Feb-15 20:58N 01°16' E 103°54'0 0.0
2018-Feb-15 20:28N 01°16' E 103°54'0 0.0
2018-Feb-15 19:52N 01°16' E 103°54'0 0.0
2018-Feb-15 19:27N 01°16' E 103°54'0 0.0
2018-Feb-15 18:33N 01°16' E 103°54'0 0.0
2018-Feb-15 18:30N 01°16' E 103°54'0 0.0
2018-Feb-15 17:55N 01°16' E 103°54'0 0.0
2018-Feb-15 17:30N 01°16' E 103°54'0 0.1
2018-Feb-15 17:00N 01°16' E 103°54'3 5.2
2018-Feb-15 16:30N 01°14' E 103°53'4 7.6
2018-Feb-15 15:59N 01°13' E 103°49'0 0.7
2018-Feb-15 15:30N 01°13' E 103°49'0 0.0
2018-Feb-15 14:57N 01°13' E 103°49'1 2.3
2018-Feb-15 14:30N 01°13' E 103°48'3 7.0
2018-Feb-15 14:00N 01°15' E 103°45'5 9.3
2018-Feb-15 13:30N 01°13' E 103°40'5 9.1
2018-Feb-15 13:00N 01°12' E 103°36'3 5.3
2018-Feb-15 12:29N 01°11' E 103°34'4 9.2
2018-Feb-15 12:00N 01°10' E 103°29'4 7.2
2018-Feb-15 11:30N 01°11' E 103°26'510.6
2018-Feb-15 10:59N 01°15' E 103°21'610.9
2018-Feb-15 10:28N 01°18' E 103°17'  
Track history (hours):
 
Tides and Currents Weather Stations Pressure Air Temp Water Temp Dewpoint Dewpoint Depression Visibility Wind Speed Wind Dir Waves Ship Positions

Maratha Paramount

Last reported at 2018-Feb-16 09:14 UTC. Time now 2018-Feb-19 00:11 UTC.
Position N 01°13' E 103°57'.

Length 175 m; draft 6.6 m.

Type: Cargo ship. MMSI: 538003632.

Date/timePositionNaut miles runAvg speedWind from/ knotsBaromVisibWave heightAir tempDewpointWater temp
2018-Feb-16 09:14N 01°13' E 103°57'2 9.0
2018-Feb-16 09:00N 01°14' E 103°55'2 3.4
2018-Feb-16 08:22N 01°16' E 103°54'0 0.0
2018-Feb-16 07:58N 01°16' E 103°54'0 0.0
2018-Feb-16 07:28N 01°16' E 103°54'0 0.0
2018-Feb-16 06:52N 01°16' E 103°54'0 0.0
2018-Feb-16 06:04N 01°16' E 103°54'0 0.0
2018-Feb-16 05:52N 01°16' E 103°54'0 0.2
2018-Feb-16 05:28N 01°16' E 103°54'0 0.0
2018-Feb-16 04:01N 01°16' E 103°54'0 0.1
2018-Feb-16 03:52N 01°16' E 103°54'0 0.1
2018-Feb-16 02:40N 01°16' E 103°54'0 0.0
2018-Feb-16 02:28N 01°16' E 103°54'0 0.0
2018-Feb-16 01:58N 01°16' E 103°54'0 0.0
2018-Feb-15 23:58N 01°16' E 103°54'0 0.0
2018-Feb-15 23:04N 01°16' E 103°54'0 0.0
2018-Feb-15 22:58N 01°16' E 103°54'0 0.0
2018-Feb-15 22:22N 01°16' E 103°54'0 0.0
2018-Feb-15 21:58N 01°16' E 103°54'0 0.0
2018-Feb-15 21:26N 01°16' E 103°54'0 0.0
2018-Feb-15 20:58N 01°16' E 103°54'0 0.0
2018-Feb-15 20:28N 01°16' E 103°54'0 0.0
2018-Feb-15 19:52N 01°16' E 103°54'0 0.0
2018-Feb-15 19:27N 01°16' E 103°54'0 0.0
2018-Feb-15 18:33N 01°16' E 103°54'0 0.0
2018-Feb-15 18:30N 01°16' E 103°54'0 0.0
2018-Feb-15 17:55N 01°16' E 103°54'0 0.0
2018-Feb-15 17:30N 01°16' E 103°54'0 0.1
2018-Feb-15 17:00N 01°16' E 103°54'3 5.2
2018-Feb-15 16:30N 01°14' E 103°53'4 7.6
2018-Feb-15 15:59N 01°13' E 103°49'0 0.7
2018-Feb-15 15:30N 01°13' E 103°49'0 0.0
2018-Feb-15 14:57N 01°13' E 103°49'1 2.3
2018-Feb-15 14:30N 01°13' E 103°48'3 7.0
2018-Feb-15 14:00N 01°15' E 103°45'5 9.3
2018-Feb-15 13:30N 01°13' E 103°40'5 9.1
2018-Feb-15 13:00N 01°12' E 103°36'3 5.3
2018-Feb-15 12:29N 01°11' E 103°34'4 9.2
2018-Feb-15 12:00N 01°10' E 103°29'4 7.2
2018-Feb-15 11:30N 01°11' E 103°26'510.6
2018-Feb-15 10:59N 01°15' E 103°21'610.9
2018-Feb-15 10:28N 01°18' E 103°17'  

Dump ship's entire track history